sensor_id;sensor_type;location;lat;lon;timestamp;temperature;humidity
8778;DHT22;4425;50.872;4.712;2023-06-04T11:52:28;24.40;71.00
8778;DHT22;4425;50.872;4.712;2023-06-04T12:54:50;25.00;68.40
8778;DHT22;4425;50.872;4.712;2023-06-04T12:57:23;24.80;68.60
8778;DHT22;4425;50.872;4.712;2023-06-04T12:59:55;24.80;67.90
8778;DHT22;4425;50.872;4.712;2023-06-04T13:04:58;24.90;68.70
8778;DHT22;4425;50.872;4.712;2023-06-04T13:07:41;24.90;68.50
8778;DHT22;4425;50.872;4.712;2023-06-04T13:10:09;24.50;68.00
8778;DHT22;4425;50.872;4.712;2023-06-04T13:12:36;24.60;69.20
8778;DHT22;4425;50.872;4.712;2023-06-04T13:15:04;24.70;67.50
8778;DHT22;4425;50.872;4.712;2023-06-04T13:17:31;24.80;66.90
8778;DHT22;4425;50.872;4.712;2023-06-04T13:19:59;24.90;66.50
8778;DHT22;4425;50.872;4.712;2023-06-04T13:22:26;25.00;66.10
8778;DHT22;4425;50.872;4.712;2023-06-04T13:24:53;25.00;65.30
8778;DHT22;4425;50.872;4.712;2023-06-04T13:27:21;24.70;65.90
8778;DHT22;4425;50.872;4.712;2023-06-04T13:29:48;25.00;65.80
8778;DHT22;4425;50.872;4.712;2023-06-04T13:32:16;25.10;65.90
8778;DHT22;4425;50.872;4.712;2023-06-04T13:34:43;25.30;65.40
8778;DHT22;4425;50.872;4.712;2023-06-04T13:37:10;25.30;65.80
8778;DHT22;4425;50.872;4.712;2023-06-04T13:39:38;25.40;65.50
8778;DHT22;4425;50.872;4.712;2023-06-04T13:42:05;25.60;66.10
8778;DHT22;4425;50.872;4.712;2023-06-04T13:44:34;25.50;64.70
8778;DHT22;4425;50.872;4.712;2023-06-04T13:47:01;25.50;65.20
8778;DHT22;4425;50.872;4.712;2023-06-04T13:49:32;25.00;65.70
8778;DHT22;4425;50.872;4.712;2023-06-04T13:51:59;25.20;66.40
8778;DHT22;4425;50.872;4.712;2023-06-04T13:54:26;25.30;66.40
8778;DHT22;4425;50.872;4.712;2023-06-04T13:56:53;25.50;65.70
8778;DHT22;4425;50.872;4.712;2023-06-04T13:59:22;25.50;65.70
8778;DHT22;4425;50.872;4.712;2023-06-04T14:01:51;25.60;65.60
8778;DHT22;4425;50.872;4.712;2023-06-04T14:04:18;25.50;66.00
8778;DHT22;4425;50.872;4.712;2023-06-04T14:06:45;25.50;65.80
8778;DHT22;4425;50.872;4.712;2023-06-04T14:09:12;25.40;65.50
8778;DHT22;4425;50.872;4.712;2023-06-04T14:11:40;25.60;65.00
8778;DHT22;4425;50.872;4.712;2023-06-04T14:14:07;25.70;64.80
8778;DHT22;4425;50.872;4.712;2023-06-04T14:16:34;25.60;65.20
8778;DHT22;4425;50.872;4.712;2023-06-04T14:19:03;25.60;64.70
8778;DHT22;4425;50.872;4.712;2023-06-04T14:21:30;25.50;64.90
8778;DHT22;4425;50.872;4.712;2023-06-04T14:23:57;25.50;64.90
8778;DHT22;4425;50.872;4.712;2023-06-04T14:26:26;25.60;64.50
8778;DHT22;4425;50.872;4.712;2023-06-04T14:28:53;25.80;64.40
8778;DHT22;4425;50.872;4.712;2023-06-04T14:31:20;25.80;64.40
8778;DHT22;4425;50.872;4.712;2023-06-04T14:33:47;25.70;64.20
8778;DHT22;4425;50.872;4.712;2023-06-04T14:36:16;25.90;63.60
8778;DHT22;4425;50.872;4.712;2023-06-04T14:38:43;25.90;63.30
8778;DHT22;4425;50.872;4.712;2023-06-04T14:41:11;25.70;63.30
8778;DHT22;4425;50.872;4.712;2023-06-04T14:43:38;25.70;63.10
8778;DHT22;4425;50.872;4.712;2023-06-04T14:46:05;25.40;62.40
8778;DHT22;4425;50.872;4.712;2023-06-04T14:48:32;25.50;63.30
8778;DHT22;4425;50.872;4.712;2023-06-04T14:50:59;25.30;62.10
8778;DHT22;4425;50.872;4.712;2023-06-04T14:53:27;25.30;62.20
8778;DHT22;4425;50.872;4.712;2023-06-04T14:55:55;25.50;63.10
8778;DHT22;4425;50.872;4.712;2023-06-04T14:58:22;25.50;61.70
8778;DHT22;4425;50.872;4.712;2023-06-04T15:00:49;25.60;62.10
8778;DHT22;4425;50.872;4.712;2023-06-04T15:03:16;25.70;61.80
8778;DHT22;4425;50.872;4.712;2023-06-04T15:05:43;25.80;61.90
8778;DHT22;4425;50.872;4.712;2023-06-04T15:08:10;25.40;61.80
8778;DHT22;4425;50.872;4.712;2023-06-04T15:10:38;25.50;62.00
8778;DHT22;4425;50.872;4.712;2023-06-04T15:13:05;25.50;61.50
8778;DHT22;4425;50.872;4.712;2023-06-04T15:15:32;25.40;61.80
8778;DHT22;4425;50.872;4.712;2023-06-04T15:17:59;25.60;61.60
8778;DHT22;4425;50.872;4.712;2023-06-04T15:20:26;25.60;60.90
8778;DHT22;4425;50.872;4.712;2023-06-04T15:22:54;25.70;61.20
8778;DHT22;4425;50.872;4.712;2023-06-04T15:25:21;25.70;61.00
8778;DHT22;4425;50.872;4.712;2023-06-04T15:27:49;25.60;60.70
8778;DHT22;4425;50.872;4.712;2023-06-04T15:30:17;25.40;62.10
8778;DHT22;4425;50.872;4.712;2023-06-04T15:32:46;25.50;63.40
8778;DHT22;4425;50.872;4.712;2023-06-04T15:35:13;25.60;62.00
8778;DHT22;4425;50.872;4.712;2023-06-04T15:37:40;25.80;62.00
8778;DHT22;4425;50.872;4.712;2023-06-04T15:40:07;25.80;62.10
8778;DHT22;4425;50.872;4.712;2023-06-04T15:42:36;25.50;61.40
8778;DHT22;4425;50.872;4.712;2023-06-04T15:45:05;25.60;62.30
8778;DHT22;4425;50.872;4.712;2023-06-04T15:47:33;25.70;62.70
8778;DHT22;4425;50.872;4.712;2023-06-04T15:50:01;25.70;63.00
8778;DHT22;4425;50.872;4.712;2023-06-04T15:52:28;25.80;63.40
8778;DHT22;4425;50.872;4.712;2023-06-04T15:54:56;25.80;63.00
8778;DHT22;4425;50.872;4.712;2023-06-04T15:57:23;25.80;63.20
8778;DHT22;4425;50.872;4.712;2023-06-04T15:59:50;25.60;63.00
8778;DHT22;4425;50.872;4.712;2023-06-04T16:02:18;25.60;62.80
8778;DHT22;4425;50.872;4.712;2023-06-04T16:04:45;25.50;62.80
8778;DHT22;4425;50.872;4.712;2023-06-04T16:07:12;25.40;62.70
8778;DHT22;4425;50.872;4.712;2023-06-04T16:09:41;25.30;62.50
8778;DHT22;4425;50.872;4.712;2023-06-04T16:12:08;25.50;63.50
8778;DHT22;4425;50.872;4.712;2023-06-04T16:14:35;25.60;62.70
8778;DHT22;4425;50.872;4.712;2023-06-04T16:17:01;25.70;61.60
8778;DHT22;4425;50.872;4.712;2023-06-04T16:19:30;25.60;61.50
8778;DHT22;4425;50.872;4.712;2023-06-04T16:21:57;25.40;62.20
8778;DHT22;4425;50.872;4.712;2023-06-04T16:24:25;25.50;63.30
8778;DHT22;4425;50.872;4.712;2023-06-04T16:26:52;25.60;62.60
8778;DHT22;4425;50.872;4.712;2023-06-04T16:29:19;25.60;61.80
8778;DHT22;4425;50.872;4.712;2023-06-04T16:31:46;25.60;62.50
8778;DHT22;4425;50.872;4.712;2023-06-04T16:34:13;25.50;63.70
8778;DHT22;4425;50.872;4.712;2023-06-04T16:36:42;25.50;63.40
8778;DHT22;4425;50.872;4.712;2023-06-04T16:39:10;25.40;63.60
8778;DHT22;4425;50.872;4.712;2023-06-04T16:41:37;25.30;63.90
8778;DHT22;4425;50.872;4.712;2023-06-04T16:44:04;25.20;64.50
8778;DHT22;4425;50.872;4.712;2023-06-04T16:46:31;25.20;65.40
8778;DHT22;4425;50.872;4.712;2023-06-04T16:48:58;25.10;65.50
8778;DHT22;4425;50.872;4.712;2023-06-04T16:51:25;25.00;65.80
8778;DHT22;4425;50.872;4.712;2023-06-04T16:53:54;25.00;65.30
8778;DHT22;4425;50.872;4.712;2023-06-04T16:56:22;25.10;65.00
8778;DHT22;4425;50.872;4.712;2023-06-04T16:58:48;25.20;64.10
8778;DHT22;4425;50.872;4.712;2023-06-04T17:01:15;25.20;64.60
8778;DHT22;4425;50.872;4.712;2023-06-04T17:03:43;25.20;64.90
8778;DHT22;4425;50.872;4.712;2023-06-04T17:06:10;25.10;65.00
8778;DHT22;4425;50.872;4.712;2023-06-04T17:08:37;25.10;65.50
8778;DHT22;4425;50.872;4.712;2023-06-04T17:11:05;25.20;65.50
8778;DHT22;4425;50.872;4.712;2023-06-04T17:13:33;25.10;64.90
8778;DHT22;4425;50.872;4.712;2023-06-04T17:15:59;24.90;65.70
8778;DHT22;4425;50.872;4.712;2023-06-04T17:18:26;25.00;66.60
8778;DHT22;4425;50.872;4.712;2023-06-04T17:20:53;25.00;66.80
8778;DHT22;4425;50.872;4.712;2023-06-04T17:23:21;24.90;67.50
8778;DHT22;4425;50.872;4.712;2023-06-04T17:25:49;24.90;67.90
8778;DHT22;4425;50.872;4.712;2023-06-04T17:28:17;24.90;68.60
8778;DHT22;4425;50.872;4.712;2023-06-04T17:30:45;24.90;68.50
8778;DHT22;4425;50.872;4.712;2023-06-04T17:33:12;24.90;67.00
8778;DHT22;4425;50.872;4.712;2023-06-04T17:35:39;24.90;66.00
8778;DHT22;4425;50.872;4.712;2023-06-04T17:38:06;24.90;66.60
8778;DHT22;4425;50.872;4.712;2023-06-04T17:40:33;24.80;66.80
8778;DHT22;4425;50.872;4.712;2023-06-04T17:43:00;24.70;67.50
8778;DHT22;4425;50.872;4.712;2023-06-04T17:45:29;24.70;67.80
8778;DHT22;4425;50.872;4.712;2023-06-04T17:47:57;24.50;67.50
8778;DHT22;4425;50.872;4.712;2023-06-04T17:50:26;24.30;68.00
8778;DHT22;4425;50.872;4.712;2023-06-04T17:52:53;24.30;68.40
8778;DHT22;4425;50.872;4.712;2023-06-04T17:55:20;24.30;68.50
8778;DHT22;4425;50.872;4.712;2023-06-04T17:57:47;24.10;68.90
8778;DHT22;4425;50.872;4.712;2023-06-04T18:00:15;24.00;68.90
8778;DHT22;4425;50.872;4.712;2023-06-04T18:02:45;24.10;69.30
8778;DHT22;4425;50.872;4.712;2023-06-04T18:05:12;24.00;69.40
8778;DHT22;4425;50.872;4.712;2023-06-04T18:07:39;24.00;69.90
8778;DHT22;4425;50.872;4.712;2023-06-04T18:10:06;24.00;70.40
8778;DHT22;4425;50.872;4.712;2023-06-04T18:12:34;24.00;71.20
8778;DHT22;4425;50.872;4.712;2023-06-04T18:15:02;24.00;71.90
8778;DHT22;4425;50.872;4.712;2023-06-04T18:17:29;24.00;73.00
8778;DHT22;4425;50.872;4.712;2023-06-04T18:19:58;23.90;72.40
8778;DHT22;4425;50.872;4.712;2023-06-04T18:22:25;23.90;72.90
8778;DHT22;4425;50.872;4.712;2023-06-04T18:24:52;23.70;72.70
8778;DHT22;4425;50.872;4.712;2023-06-04T18:27:19;23.70;73.20
8778;DHT22;4425;50.872;4.712;2023-06-04T18:29:46;23.70;73.30
8778;DHT22;4425;50.872;4.712;2023-06-04T18:32:14;23.70;73.50
8778;DHT22;4425;50.872;4.712;2023-06-04T18:34:41;23.50;73.30
8778;DHT22;4425;50.872;4.712;2023-06-04T18:37:10;23.50;73.90
8778;DHT22;4425;50.872;4.712;2023-06-04T18:39:37;23.50;74.30
8778;DHT22;4425;50.872;4.712;2023-06-04T18:42:04;23.40;74.40
8778;DHT22;4425;50.872;4.712;2023-06-04T18:44:31;23.40;74.70
8778;DHT22;4425;50.872;4.712;2023-06-04T18:46:58;23.30;74.40
8778;DHT22;4425;50.872;4.712;2023-06-04T18:49:26;23.20;74.60
8778;DHT22;4425;50.872;4.712;2023-06-04T18:51:53;23.20;75.00
8778;DHT22;4425;50.872;4.712;2023-06-04T18:54:22;23.10;75.00
8778;DHT22;4425;50.872;4.712;2023-06-04T18:56:49;23.10;75.80
8778;DHT22;4425;50.872;4.712;2023-06-04T18:59:16;23.10;75.50
8778;DHT22;4425;50.872;4.712;2023-06-04T19:01:43;23.00;75.50
8778;DHT22;4425;50.872;4.712;2023-06-04T19:04:11;23.00;76.00
8778;DHT22;4425;50.872;4.712;2023-06-04T19:06:38;22.90;76.20
8778;DHT22;4425;50.872;4.712;2023-06-04T19:09:05;22.90;76.40
8778;DHT22;4425;50.872;4.712;2023-06-04T19:11:34;22.80;76.40
8778;DHT22;4425;50.872;4.712;2023-06-04T19:14:01;22.80;76.70
8778;DHT22;4425;50.872;4.712;2023-06-04T19:16:28;22.70;76.70
8778;DHT22;4425;50.872;4.712;2023-06-04T19:18:58;22.60;77.10
8778;DHT22;4425;50.872;4.712;2023-06-04T19:21:25;22.60;77.30
8778;DHT22;4425;50.872;4.712;2023-06-04T19:23:52;22.50;77.50
8778;DHT22;4425;50.872;4.712;2023-06-04T19:26:19;22.50;77.90
8778;DHT22;4425;50.872;4.712;2023-06-04T19:28:49;22.30;78.10
8778;DHT22;4425;50.872;4.712;2023-06-04T19:31:16;22.20;78.30
8778;DHT22;4425;50.872;4.712;2023-06-04T19:33:43;22.20;78.70
8778;DHT22;4425;50.872;4.712;2023-06-04T19:36:10;22.10;78.90
8778;DHT22;4425;50.872;4.712;2023-06-04T19:38:38;22.10;79.20
8778;DHT22;4425;50.872;4.712;2023-06-04T19:41:07;22.00;79.50
8778;DHT22;4425;50.872;4.712;2023-06-04T19:43:34;22.00;80.10
8778;DHT22;4425;50.872;4.712;2023-06-04T19:46:02;21.90;80.20
8778;DHT22;4425;50.872;4.712;2023-06-04T19:48:29;21.80;80.70
8778;DHT22;4425;50.872;4.712;2023-06-04T19:50:57;21.80;81.40
8778;DHT22;4425;50.872;4.712;2023-06-04T19:53:24;21.70;82.30
8778;DHT22;4425;50.872;4.712;2023-06-04T19:55:52;21.60;83.00
8778;DHT22;4425;50.872;4.712;2023-06-04T19:58:19;21.50;83.50
8778;DHT22;4425;50.872;4.712;2023-06-04T20:00:46;21.40;83.80
8778;DHT22;4425;50.872;4.712;2023-06-04T20:03:18;21.40;84.60
8778;DHT22;4425;50.872;4.712;2023-06-04T20:05:54;21.30;86.40
8778;DHT22;4425;50.872;4.712;2023-06-04T20:08:21;21.20;89.10
8778;DHT22;4425;50.872;4.712;2023-06-04T20:10:49;21.00;90.40
8778;DHT22;4425;50.872;4.712;2023-06-04T20:13:16;20.90;91.40
8778;DHT22;4425;50.872;4.712;2023-06-04T20:15:43;20.90;92.40
8778;DHT22;4425;50.872;4.712;2023-06-04T20:18:10;20.80;93.00
8778;DHT22;4425;50.872;4.712;2023-06-04T20:20:40;20.70;93.60
8778;DHT22;4425;50.872;4.712;2023-06-04T20:23:07;20.60;94.30
8778;DHT22;4425;50.872;4.712;2023-06-04T20:25:37;20.50;94.70
8778;DHT22;4425;50.872;4.712;2023-06-04T20:28:10;20.40;95.20
8778;DHT22;4425;50.872;4.712;2023-06-04T20:30:38;20.30;95.90
8778;DHT22;4425;50.872;4.712;2023-06-04T20:33:05;20.30;96.20
8778;DHT22;4425;50.872;4.712;2023-06-04T20:35:35;20.20;97.30
8778;DHT22;4425;50.872;4.712;2023-06-04T20:38:14;20.20;98.10
8778;DHT22;4425;50.872;4.712;2023-06-04T20:40:41;20.10;98.70
8778;DHT22;4425;50.872;4.712;2023-06-04T20:43:08;20.10;99.10
8778;DHT22;4425;50.872;4.712;2023-06-04T20:45:37;20.00;99.70
8778;DHT22;4425;50.872;4.712;2023-06-04T20:48:05;19.90;99.90
8778;DHT22;4425;50.872;4.712;2023-06-04T20:50:32;19.90;99.90
8778;DHT22;4425;50.872;4.712;2023-06-04T20:53:03;19.80;99.90
8778;DHT22;4425;50.872;4.712;2023-06-04T20:55:39;19.80;99.90
8778;DHT22;4425;50.872;4.712;2023-06-04T20:58:06;19.70;99.90
8778;DHT22;4425;50.872;4.712;2023-06-04T21:00:36;19.60;99.90
8778;DHT22;4425;50.872;4.712;2023-06-04T21:03:03;19.50;99.90
8778;DHT22;4425;50.872;4.712;2023-06-04T21:05:31;19.40;99.90
8778;DHT22;4425;50.872;4.712;2023-06-04T21:07:58;19.40;99.90
8778;DHT22;4425;50.872;4.712;2023-06-04T21:10:25;19.40;99.90
8778;DHT22;4425;50.872;4.712;2023-06-04T21:12:53;19.30;99.90
8778;DHT22;4425;50.872;4.712;2023-06-04T21:15:21;19.30;99.90
8778;DHT22;4425;50.872;4.712;2023-06-04T21:17:47;19.20;99.90
8778;DHT22;4425;50.872;4.712;2023-06-04T21:20:15;19.20;99.90
8778;DHT22;4425;50.872;4.712;2023-06-04T21:22:46;19.10;99.90
8778;DHT22;4425;50.872;4.712;2023-06-04T21:25:14;19.10;99.90
8778;DHT22;4425;50.872;4.712;2023-06-04T21:27:43;19.00;99.90
8778;DHT22;4425;50.872;4.712;2023-06-04T21:30:14;18.90;99.90
8778;DHT22;4425;50.872;4.712;2023-06-04T21:32:41;18.80;99.90
8778;DHT22;4425;50.872;4.712;2023-06-04T21:35:11;18.80;99.90
8778;DHT22;4425;50.872;4.712;2023-06-04T21:37:39;18.70;99.90
8778;DHT22;4425;50.872;4.712;2023-06-04T21:40:07;18.60;99.90
8778;DHT22;4425;50.872;4.712;2023-06-04T21:42:34;18.60;99.90
8778;DHT22;4425;50.872;4.712;2023-06-04T21:45:02;18.60;99.90
8778;DHT22;4425;50.872;4.712;2023-06-04T21:47:31;18.50;99.90
8778;DHT22;4425;50.872;4.712;2023-06-04T21:49:58;18.50;99.90
8778;DHT22;4425;50.872;4.712;2023-06-04T21:52:26;18.40;99.90
8778;DHT22;4425;50.872;4.712;2023-06-04T21:54:53;18.30;99.90
8778;DHT22;4425;50.872;4.712;2023-06-04T21:57:20;18.40;99.90
8778;DHT22;4425;50.872;4.712;2023-06-04T21:59:48;18.20;99.90
8778;DHT22;4425;50.872;4.712;2023-06-04T22:02:16;18.20;99.90
8778;DHT22;4425;50.872;4.712;2023-06-04T22:04:45;18.10;99.90
8778;DHT22;4425;50.872;4.712;2023-06-04T22:07:13;18.00;99.90
8778;DHT22;4425;50.872;4.712;2023-06-04T22:09:40;18.00;99.90
8778;DHT22;4425;50.872;4.712;2023-06-04T22:12:10;18.10;99.90
8778;DHT22;4425;50.872;4.712;2023-06-04T22:14:37;17.90;99.90
8778;DHT22;4425;50.872;4.712;2023-06-04T22:17:06;18.00;99.90
8778;DHT22;4425;50.872;4.712;2023-06-04T22:19:49;17.90;99.90
8778;DHT22;4425;50.872;4.712;2023-06-04T22:22:17;17.90;99.90
8778;DHT22;4425;50.872;4.712;2023-06-04T22:24:45;17.90;99.90
8778;DHT22;4425;50.872;4.712;2023-06-04T22:27:13;17.60;99.90
8778;DHT22;4425;50.872;4.712;2023-06-04T22:29:40;17.70;99.90
8778;DHT22;4425;50.872;4.712;2023-06-04T22:32:07;17.60;99.90
8778;DHT22;4425;50.872;4.712;2023-06-04T22:34:35;17.60;99.90
8778;DHT22;4425;50.872;4.712;2023-06-04T22:37:04;17.50;99.90
8778;DHT22;4425;50.872;4.712;2023-06-04T22:39:31;17.50;99.90
8778;DHT22;4425;50.872;4.712;2023-06-04T22:41:58;17.40;99.90
8778;DHT22;4425;50.872;4.712;2023-06-04T22:44:25;17.40;99.90
8778;DHT22;4425;50.872;4.712;2023-06-04T22:46:53;17.30;99.90
8778;DHT22;4425;50.872;4.712;2023-06-04T22:49:21;17.30;99.90
8778;DHT22;4425;50.872;4.712;2023-06-04T22:51:48;17.20;99.90
8778;DHT22;4425;50.872;4.712;2023-06-04T22:54:17;17.20;99.90
8778;DHT22;4425;50.872;4.712;2023-06-04T22:56:44;17.20;99.90
8778;DHT22;4425;50.872;4.712;2023-06-04T22:59:12;17.00;99.90
8778;DHT22;4425;50.872;4.712;2023-06-04T23:01:39;17.00;99.90
8778;DHT22;4425;50.872;4.712;2023-06-04T23:04:07;17.00;99.90
8778;DHT22;4425;50.872;4.712;2023-06-04T23:06:34;16.90;99.90
8778;DHT22;4425;50.872;4.712;2023-06-04T23:09:02;16.90;99.90
8778;DHT22;4425;50.872;4.712;2023-06-04T23:14:52;16.80;99.90
